sensor_id;sensor_type;location;lat;lon;timestamp;pressure;altitude;pressure_sealevel;temperature;humidity
18201;BME280;9226;47.858;9.594;2023-06-14T00:01:25;94640.88;;;16.02;37.51
18201;BME280;9226;47.858;9.594;2023-06-14T00:03:52;94648.44;;;15.99;37.51
18201;BME280;9226;47.858;9.594;2023-06-14T00:06:17;94644.97;;;15.90;38.00
18201;BME280;9226;47.858;9.594;2023-06-14T00:08:43;94643.47;;;15.87;37.95
18201;BME280;9226;47.858;9.594;2023-06-14T00:11:08;94645.03;;;15.82;38.14
18201;BME280;9226;47.858;9.594;2023-06-14T00:13:34;94638.19;;;15.79;38.02
18201;BME280;9226;47.858;9.594;2023-06-14T00:15:59;94640.72;;;15.72;38.33
18201;BME280;9226;47.858;9.594;2023-06-14T00:18:26;94648.44;;;15.67;37.90
18201;BME280;9226;47.858;9.594;2023-06-14T00:20:55;94648.09;;;15.62;38.25
18201;BME280;9226;47.858;9.594;2023-06-14T00:23:20;94640.44;;;15.59;38.31
18201;BME280;9226;47.858;9.594;2023-06-14T00:25:46;94644.31;;;15.56;38.30
18201;BME280;9226;47.858;9.594;2023-06-14T00:28:12;94633.97;;;15.53;38.28
18201;BME280;9226;47.858;9.594;2023-06-14T00:30:37;94642.50;;;15.49;38.85
18201;BME280;9226;47.858;9.594;2023-06-14T00:33:02;94641.50;;;15.50;38.19
18201;BME280;9226;47.858;9.594;2023-06-14T00:35:28;94635.81;;;15.45;38.82
18201;BME280;9226;47.858;9.594;2023-06-14T00:37:54;94639.88;;;15.41;38.91
18201;BME280;9226;47.858;9.594;2023-06-14T00:40:20;94636.53;;;15.38;38.85
18201;BME280;9226;47.858;9.594;2023-06-14T00:42:46;94638.06;;;15.33;39.07
18201;BME280;9226;47.858;9.594;2023-06-14T00:45:12;94638.41;;;15.30;39.19
18201;BME280;9226;47.858;9.594;2023-06-14T00:47:38;94630.91;;;15.25;39.09
18201;BME280;9226;47.858;9.594;2023-06-14T00:50:07;94637.44;;;15.23;39.08
18201;BME280;9226;47.858;9.594;2023-06-14T00:52:32;94633.28;;;15.20;39.09
18201;BME280;9226;47.858;9.594;2023-06-14T00:54:58;94633.16;;;15.13;39.59
18201;BME280;9226;47.858;9.594;2023-06-14T00:57:24;94631.63;;;15.11;39.64
18201;BME280;9226;47.858;9.594;2023-06-14T00:59:49;94627.13;;;15.11;39.35
18201;BME280;9226;47.858;9.594;2023-06-14T01:02:15;94632.16;;;15.06;39.51
18201;BME280;9226;47.858;9.594;2023-06-14T01:04:45;94627.31;;;15.01;39.67
18201;BME280;9226;47.858;9.594;2023-06-14T01:07:43;94634.84;;;14.98;40.69
18201;BME280;9226;47.858;9.594;2023-06-14T01:15:16;94634.38;;;14.86;40.38
18201;BME280;9226;47.858;9.594;2023-06-14T01:17:44;94636.38;;;14.84;40.43
18201;BME280;9226;47.858;9.594;2023-06-14T01:20:13;94627.03;;;14.80;40.84
18201;BME280;9226;47.858;9.594;2023-06-14T01:22:53;94627.38;;;14.77;41.04
18201;BME280;9226;47.858;9.594;2023-06-14T01:25:19;94630.06;;;14.77;40.38
18201;BME280;9226;47.858;9.594;2023-06-14T01:30:20;94614.56;;;14.72;40.73
18201;BME280;9226;47.858;9.594;2023-06-14T01:32:47;94623.44;;;14.64;41.33
18201;BME280;9226;47.858;9.594;2023-06-14T01:35:12;94616.06;;;14.67;41.20
18201;BME280;9226;47.858;9.594;2023-06-14T01:37:39;94611.91;;;14.64;41.06
18201;BME280;9226;47.858;9.594;2023-06-14T01:40:07;94611.25;;;14.62;41.29
18201;BME280;9226;47.858;9.594;2023-06-14T01:42:36;94611.25;;;14.62;41.45
18201;BME280;9226;47.858;9.594;2023-06-14T01:45:04;94610.25;;;14.63;41.10
18201;BME280;9226;47.858;9.594;2023-06-14T01:47:31;94605.72;;;14.63;40.85
18201;BME280;9226;47.858;9.594;2023-06-14T01:49:57;94607.75;;;14.61;41.17
18201;BME280;9226;47.858;9.594;2023-06-14T01:52:22;94607.03;;;14.59;41.06
18201;BME280;9226;47.858;9.594;2023-06-14T01:54:52;94613.56;;;14.57;41.41
18201;BME280;9226;47.858;9.594;2023-06-14T01:57:17;94611.22;;;14.54;41.46
18201;BME280;9226;47.858;9.594;2023-06-14T01:59:43;94610.03;;;14.56;41.38
18201;BME280;9226;47.858;9.594;2023-06-14T02:02:13;94608.56;;;14.54;41.43
18201;BME280;9226;47.858;9.594;2023-06-14T02:04:39;94614.06;;;14.52;41.66
18201;BME280;9226;47.858;9.594;2023-06-14T02:07:04;94606.91;;;14.44;41.80
18201;BME280;9226;47.858;9.594;2023-06-14T02:09:30;94613.56;;;14.40;42.17
18201;BME280;9226;47.858;9.594;2023-06-14T02:11:55;94609.75;;;14.43;41.71
18201;BME280;9226;47.858;9.594;2023-06-14T02:14:20;94607.09;;;14.35;42.61
18201;BME280;9226;47.858;9.594;2023-06-14T02:16:46;94613.41;;;14.34;42.08
18201;BME280;9226;47.858;9.594;2023-06-14T02:19:17;94616.75;;;14.27;42.39
18201;BME280;9226;47.858;9.594;2023-06-14T02:21:43;94619.41;;;14.27;42.47
18201;BME280;9226;47.858;9.594;2023-06-14T02:24:08;94616.44;;;14.22;42.93
18201;BME280;9226;47.858;9.594;2023-06-14T02:26:35;94620.25;;;14.20;42.24
18201;BME280;9226;47.858;9.594;2023-06-14T02:29:00;94609.91;;;14.17;42.28
18201;BME280;9226;47.858;9.594;2023-06-14T02:31:26;94615.25;;;14.17;42.45
18201;BME280;9226;47.858;9.594;2023-06-14T02:33:52;94613.09;;;14.12;42.77
18201;BME280;9226;47.858;9.594;2023-06-14T02:36:20;94622.44;;;14.08;43.18
18201;BME280;9226;47.858;9.594;2023-06-14T02:38:45;94625.09;;;14.08;42.87
18201;BME280;9226;47.858;9.594;2023-06-14T02:41:12;94620.09;;;14.05;43.04
18201;BME280;9226;47.858;9.594;2023-06-14T02:43:37;94618.09;;;13.99;43.27
18201;BME280;9226;47.858;9.594;2023-06-14T02:46:03;94624.41;;;13.98;43.14
18201;BME280;9226;47.858;9.594;2023-06-14T02:48:29;94621.91;;;13.96;43.27
18201;BME280;9226;47.858;9.594;2023-06-14T02:50:54;94622.41;;;13.91;43.64
18201;BME280;9226;47.858;9.594;2023-06-14T02:53:21;94617.06;;;13.91;43.42
18201;BME280;9226;47.858;9.594;2023-06-14T02:55:46;94627.41;;;13.86;44.17
18201;BME280;9226;47.858;9.594;2023-06-14T02:58:13;94624.56;;;13.88;43.66
18201;BME280;9226;47.858;9.594;2023-06-14T03:00:39;94619.25;;;13.88;43.85
18201;BME280;9226;47.858;9.594;2023-06-14T03:03:06;94622.72;;;13.80;44.25
18201;BME280;9226;47.858;9.594;2023-06-14T03:05:40;94623.44;;;13.82;44.39
18201;BME280;9226;47.858;9.594;2023-06-14T03:08:11;94629.41;;;13.84;44.32
18201;BME280;9226;47.858;9.594;2023-06-14T03:10:42;94621.25;;;13.86;44.21
18201;BME280;9226;47.858;9.594;2023-06-14T03:13:08;94630.72;;;13.80;44.50
18201;BME280;9226;47.858;9.594;2023-06-14T03:15:33;94626.25;;;13.81;44.25
18201;BME280;9226;47.858;9.594;2023-06-14T03:17:59;94634.09;;;13.82;44.40
18201;BME280;9226;47.858;9.594;2023-06-14T03:20:24;94625.72;;;13.77;44.59
18201;BME280;9226;47.858;9.594;2023-06-14T03:22:55;94630.72;;;13.80;44.66
18201;BME280;9226;47.858;9.594;2023-06-14T03:25:20;94634.06;;;13.74;44.99
18201;BME280;9226;47.858;9.594;2023-06-14T03:27:47;94633.88;;;13.75;45.07
18201;BME280;9226;47.858;9.594;2023-06-14T03:30:13;94634.91;;;13.74;44.97
18201;BME280;9226;47.858;9.594;2023-06-14T03:32:38;94644.56;;;13.75;45.04
18201;BME280;9226;47.858;9.594;2023-06-14T03:35:04;94639.22;;;13.75;45.22
18201;BME280;9226;47.858;9.594;2023-06-14T03:37:30;94638.06;;;13.78;45.28
18201;BME280;9226;47.858;9.594;2023-06-14T03:39:55;94644.06;;;13.72;45.48
18201;BME280;9226;47.858;9.594;2023-06-14T03:42:21;94646.41;;;13.75;45.49
18201;BME280;9226;47.858;9.594;2023-06-14T03:44:46;94646.22;;;13.77;45.21
18201;BME280;9226;47.858;9.594;2023-06-14T03:47:11;94645.41;;;13.76;45.74
18201;BME280;9226;47.858;9.594;2023-06-14T03:49:37;94644.06;;;13.80;45.76
18201;BME280;9226;47.858;9.594;2023-06-14T03:52:02;94652.25;;;13.87;45.18
18201;BME280;9226;47.858;9.594;2023-06-14T03:54:29;94659.09;;;13.98;45.45
18201;BME280;9226;47.858;9.594;2023-06-14T03:56:54;94662.44;;;14.08;45.41
18201;BME280;9226;47.858;9.594;2023-06-14T03:59:22;94661.78;;;14.14;45.14
18201;BME280;9226;47.858;9.594;2023-06-14T04:01:47;94675.78;;;14.16;45.22
18201;BME280;9226;47.858;9.594;2023-06-14T04:04:13;94682.47;;;14.28;45.17
18201;BME280;9226;47.858;9.594;2023-06-14T04:06:41;94675.47;;;14.44;44.55
18201;BME280;9226;47.858;9.594;2023-06-14T04:09:08;94673.28;;;14.56;44.47
18201;BME280;9226;47.858;9.594;2023-06-14T04:11:33;94677.13;;;14.70;44.83
18201;BME280;9226;47.858;9.594;2023-06-14T04:13:59;94682.44;;;14.94;44.25
18201;BME280;9226;47.858;9.594;2023-06-14T04:16:24;94688.06;;;15.16;43.92
18201;BME280;9226;47.858;9.594;2023-06-14T04:18:50;94687.50;;;15.37;43.73
18201;BME280;9226;47.858;9.594;2023-06-14T04:21:17;94691.59;;;15.56;43.34
18201;BME280;9226;47.858;9.594;2023-06-14T04:23:42;94693.88;;;15.67;43.43
18201;BME280;9226;47.858;9.594;2023-06-14T04:26:09;94694.47;;;15.86;43.03
18201;BME280;9226;47.858;9.594;2023-06-14T04:28:35;94699.34;;;16.14;42.66
18201;BME280;9226;47.858;9.594;2023-06-14T04:31:06;94694.22;;;16.27;42.17
18201;BME280;9226;47.858;9.594;2023-06-14T04:33:35;94693.47;;;16.41;42.06
18201;BME280;9226;47.858;9.594;2023-06-14T04:36:11;94698.59;;;16.66;41.68
18201;BME280;9226;47.858;9.594;2023-06-14T04:38:42;94694.75;;;16.83;41.72
18201;BME280;9226;47.858;9.594;2023-06-14T04:41:10;94697.53;;;17.13;41.49
18201;BME280;9226;47.858;9.594;2023-06-14T04:43:37;94693.19;;;17.42;40.93
18201;BME280;9226;47.858;9.594;2023-06-14T04:46:06;94701.47;;;17.77;40.59
18201;BME280;9226;47.858;9.594;2023-06-14T04:48:40;94706.44;;;18.10;39.55
18201;BME280;9226;47.858;9.594;2023-06-14T04:51:08;94708.19;;;18.61;39.09
18201;BME280;9226;47.858;9.594;2023-06-14T04:53:35;94706.66;;;19.23;38.13
18201;BME280;9226;47.858;9.594;2023-06-14T04:56:01;94699.78;;;19.84;37.55
18201;BME280;9226;47.858;9.594;2023-06-14T04:58:29;94704.97;;;20.54;36.39
18201;BME280;9226;47.858;9.594;2023-06-14T05:00:56;94701.53;;;21.07;35.60
18201;BME280;9226;47.858;9.594;2023-06-14T05:03:25;94700.84;;;21.65;34.56
18201;BME280;9226;47.858;9.594;2023-06-14T05:05:50;94698.41;;;22.09;33.55
18201;BME280;9226;47.858;9.594;2023-06-14T05:08:18;94706.41;;;22.67;33.60
18201;BME280;9226;47.858;9.594;2023-06-14T05:10:43;94698.22;;;23.12;32.63
18201;BME280;9226;47.858;9.594;2023-06-14T05:13:09;94697.47;;;23.93;31.84
18201;BME280;9226;47.858;9.594;2023-06-14T05:15:35;94696.31;;;24.49;30.86
18201;BME280;9226;47.858;9.594;2023-06-14T05:18:01;94701.13;;;25.20;30.49
18201;BME280;9226;47.858;9.594;2023-06-14T05:20:27;94710.50;;;25.59;29.32
18201;BME280;9226;47.858;9.594;2023-06-14T05:22:53;94699.59;;;26.07;29.02
18201;BME280;9226;47.858;9.594;2023-06-14T05:25:19;94704.50;;;26.91;28.58
18201;BME280;9226;47.858;9.594;2023-06-14T05:27:46;94704.34;;;27.15;27.45
18201;BME280;9226;47.858;9.594;2023-06-14T05:30:12;94710.91;;;27.31;26.35
18201;BME280;9226;47.858;9.594;2023-06-14T05:32:37;94710.59;;;27.83;26.15
18201;BME280;9226;47.858;9.594;2023-06-14T05:35:03;94712.28;;;28.23;25.64
18201;BME280;9226;47.858;9.594;2023-06-14T05:37:29;94716.94;;;27.67;25.14
18201;BME280;9226;47.858;9.594;2023-06-14T05:39:56;94711.72;;;27.48;25.59
18201;BME280;9226;47.858;9.594;2023-06-14T05:42:21;94727.44;;;27.41;26.37
18201;BME280;9226;47.858;9.594;2023-06-14T05:44:46;94719.63;;;26.70;25.58
18201;BME280;9226;47.858;9.594;2023-06-14T05:47:12;94724.63;;;26.90;25.91
18201;BME280;9226;47.858;9.594;2023-06-14T05:49:37;94716.63;;;27.46;26.08
18201;BME280;9226;47.858;9.594;2023-06-14T05:52:03;94729.78;;;27.88;25.47
18201;BME280;9226;47.858;9.594;2023-06-14T05:54:28;94719.56;;;28.18;25.10
18201;BME280;9226;47.858;9.594;2023-06-14T05:56:53;94728.19;;;28.76;24.83
18201;BME280;9226;47.858;9.594;2023-06-14T05:59:19;94723.78;;;29.24;24.35
18201;BME280;9226;47.858;9.594;2023-06-14T06:01:45;94726.28;;;29.26;24.07
18201;BME280;9226;47.858;9.594;2023-06-14T06:04:11;94736.16;;;29.69;24.16
18201;BME280;9226;47.858;9.594;2023-06-14T06:06:37;94730.84;;;30.38;23.02
18201;BME280;9226;47.858;9.594;2023-06-14T06:09:02;94723.91;;;30.78;22.71
18201;BME280;9226;47.858;9.594;2023-06-14T06:11:28;94738.00;;;31.17;22.49
18201;BME280;9226;47.858;9.594;2023-06-14T06:13:53;94740.50;;;31.70;22.08
18201;BME280;9226;47.858;9.594;2023-06-14T06:16:18;94733.66;;;31.73;21.38
18201;BME280;9226;47.858;9.594;2023-06-14T06:18:44;94736.66;;;31.71;21.27
18201;BME280;9226;47.858;9.594;2023-06-14T06:21:09;94735.00;;;31.86;21.53
18201;BME280;9226;47.858;9.594;2023-06-14T06:23:35;94731.97;;;32.18;21.35
18201;BME280;9226;47.858;9.594;2023-06-14T06:26:00;94735.13;;;32.51;20.70
18201;BME280;9226;47.858;9.594;2023-06-14T06:28:26;94732.06;;;33.23;20.74
18201;BME280;9226;47.858;9.594;2023-06-14T06:30:51;94730.34;;;33.72;20.01
18201;BME280;9226;47.858;9.594;2023-06-14T06:33:17;94732.66;;;33.89;19.63
18201;BME280;9226;47.858;9.594;2023-06-14T06:35:42;94737.69;;;33.42;19.55
18201;BME280;9226;47.858;9.594;2023-06-14T06:38:08;94742.88;;;34.13;19.54
18201;BME280;9226;47.858;9.594;2023-06-14T06:40:35;94743.09;;;34.94;19.26
18201;BME280;9226;47.858;9.594;2023-06-14T06:43:01;94740.97;;;35.29;18.72
18201;BME280;9226;47.858;9.594;2023-06-14T06:45:27;94741.00;;;35.81;18.75
18201;BME280;9226;47.858;9.594;2023-06-14T06:47:53;94741.41;;;35.55;18.00
18201;BME280;9226;47.858;9.594;2023-06-14T06:50:18;94752.03;;;36.14;17.87
18201;BME280;9226;47.858;9.594;2023-06-14T06:52:45;94755.16;;;36.07;17.77
18201;BME280;9226;47.858;9.594;2023-06-14T06:55:10;94761.19;;;36.56;17.83
18201;BME280;9226;47.858;9.594;2023-06-14T06:57:36;94755.09;;;36.73;17.69
18201;BME280;9226;47.858;9.594;2023-06-14T07:00:02;94765.47;;;37.32;17.71
18201;BME280;9226;47.858;9.594;2023-06-14T07:02:29;94760.94;;;37.36;17.00
18201;BME280;9226;47.858;9.594;2023-06-14T07:04:56;94760.72;;;38.14;16.84
18201;BME280;9226;47.858;9.594;2023-06-14T07:07:21;94763.66;;;37.86;16.37
18201;BME280;9226;47.858;9.594;2023-06-14T07:09:47;94769.94;;;38.00;16.22
18201;BME280;9226;47.858;9.594;2023-06-14T07:12:12;94767.88;;;37.47;16.07
18201;BME280;9226;47.858;9.594;2023-06-14T07:14:38;94765.34;;;37.73;17.01
18201;BME280;9226;47.858;9.594;2023-06-14T07:17:04;94767.72;;;38.34;16.23
18201;BME280;9226;47.858;9.594;2023-06-14T07:19:29;94765.81;;;38.52;16.10
18201;BME280;9226;47.858;9.594;2023-06-14T07:21:55;94767.16;;;38.54;15.82
18201;BME280;9226;47.858;9.594;2023-06-14T07:24:21;94764.78;;;38.39;16.23
18201;BME280;9226;47.858;9.594;2023-06-14T07:26:46;94766.41;;;39.12;15.68
18201;BME280;9226;47.858;9.594;2023-06-14T07:29:13;94761.28;;;38.96;15.42
18201;BME280;9226;47.858;9.594;2023-06-14T07:31:38;94764.16;;;38.42;15.38
18201;BME280;9226;47.858;9.594;2023-06-14T07:34:04;94765.25;;;37.42;15.70
18201;BME280;9226;47.858;9.594;2023-06-14T07:36:29;94766.66;;;37.39;15.77
18201;BME280;9226;47.858;9.594;2023-06-14T07:38:54;94773.84;;;37.77;15.90
18201;BME280;9226;47.858;9.594;2023-06-14T07:41:20;94777.84;;;37.20;16.03
18201;BME280;9226;47.858;9.594;2023-06-14T07:43:45;94766.38;;;37.63;16.13
18201;BME280;9226;47.858;9.594;2023-06-14T07:46:11;94773.31;;;37.38;15.78
18201;BME280;9226;47.858;9.594;2023-06-14T07:48:36;94776.63;;;37.77;15.32
18201;BME280;9226;47.858;9.594;2023-06-14T07:51:02;94771.94;;;38.09;15.80
18201;BME280;9226;47.858;9.594;2023-06-14T07:53:27;94777.63;;;38.26;15.06
18201;BME280;9226;47.858;9.594;2023-06-14T07:55:53;94776.78;;;37.80;15.35
18201;BME280;9226;47.858;9.594;2023-06-14T07:58:18;94766.63;;;37.03;15.21
18201;BME280;9226;47.858;9.594;2023-06-14T08:00:43;94773.63;;;36.26;15.61
18201;BME280;9226;47.858;9.594;2023-06-14T08:03:09;94769.97;;;36.30;15.87
18201;BME280;9226;47.858;9.594;2023-06-14T08:05:35;94772.63;;;36.35;15.87
18201;BME280;9226;47.858;9.594;2023-06-14T08:08:00;94773.28;;;36.88;15.72
18201;BME280;9226;47.858;9.594;2023-06-14T08:10:25;94774.72;;;36.99;16.22
18201;BME280;9226;47.858;9.594;2023-06-14T08:12:51;94775.06;;;37.48;16.46
18201;BME280;9226;47.858;9.594;2023-06-14T08:15:17;94777.44;;;37.63;15.82
18201;BME280;9226;47.858;9.594;2023-06-14T08:17:43;94776.09;;;37.97;15.31
18201;BME280;9226;47.858;9.594;2023-06-14T08:20:10;94772.13;;;37.67;15.68
18201;BME280;9226;47.858;9.594;2023-06-14T08:22:36;94780.75;;;38.33;16.12
18201;BME280;9226;47.858;9.594;2023-06-14T08:25:02;94777.81;;;37.85;15.87
18201;BME280;9226;47.858;9.594;2023-06-14T08:27:29;94781.53;;;37.80;15.11
18201;BME280;9226;47.858;9.594;2023-06-14T08:29:55;94781.06;;;37.27;15.29
18201;BME280;9226;47.858;9.594;2023-06-14T08:32:21;94778.78;;;37.16;16.10
18201;BME280;9226;47.858;9.594;2023-06-14T08:34:47;94775.13;;;36.65;15.97
18201;BME280;9226;47.858;9.594;2023-06-14T08:37:12;94773.50;;;36.78;16.28
18201;BME280;9226;47.858;9.594;2023-06-14T08:39:37;94777.69;;;36.14;15.78
18201;BME280;9226;47.858;9.594;2023-06-14T08:42:04;94779.47;;;35.72;15.97
18201;BME280;9226;47.858;9.594;2023-06-14T08:44:31;94774.00;;;35.10;15.50
18201;BME280;9226;47.858;9.594;2023-06-14T08:46:59;94786.16;;;34.36;15.96
18201;BME280;9226;47.858;9.594;2023-06-14T08:49:24;94777.72;;;34.52;15.81
18201;BME280;9226;47.858;9.594;2023-06-14T08:51:57;94786.53;;;33.95;15.92
18201;BME280;9226;47.858;9.594;2023-06-14T08:54:22;94785.53;;;33.81;16.36
18201;BME280;9226;47.858;9.594;2023-06-14T08:56:49;94780.16;;;33.70;17.18
18201;BME280;9226;47.858;9.594;2023-06-14T08:59:17;94783.47;;;33.62;16.57
18201;BME280;9226;47.858;9.594;2023-06-14T09:01:43;94780.81;;;34.16;16.22
18201;BME280;9226;47.858;9.594;2023-06-14T09:04:10;94783.88;;;34.43;15.46
18201;BME280;9226;47.858;9.594;2023-06-14T09:06:36;94790.75;;;34.70;15.92
18201;BME280;9226;47.858;9.594;2023-06-14T09:09:02;94787.81;;;34.37;16.21
18201;BME280;9226;47.858;9.594;2023-06-14T09:11:30;94785.13;;;34.81;16.02
18201;BME280;9226;47.858;9.594;2023-06-14T09:13:55;94777.75;;;34.76;15.62
18201;BME280;9226;47.858;9.594;2023-06-14T09:16:21;94783.38;;;34.41;15.21
18201;BME280;9226;47.858;9.594;2023-06-14T09:18:47;94791.66;;;35.33;15.93
18201;BME280;9226;47.858;9.594;2023-06-14T09:21:14;94791.06;;;35.12;15.50
18201;BME280;9226;47.858;9.594;2023-06-14T09:23:42;94783.25;;;34.52;15.10
18201;BME280;9226;47.858;9.594;2023-06-14T09:26:09;94792.88;;;34.25;15.01
18201;BME280;9226;47.858;9.594;2023-06-14T09:28:36;94786.00;;;33.09;15.93
18201;BME280;9226;47.858;9.594;2023-06-14T09:31:02;94785.00;;;33.39;15.97
18201;BME280;9226;47.858;9.594;2023-06-14T09:33:27;94789.00;;;33.62;16.08
18201;BME280;9226;47.858;9.594;2023-06-14T09:35:54;94785.44;;;33.57;15.45
18201;BME280;9226;47.858;9.594;2023-06-14T09:38:19;94788.13;;;33.27;15.68
18201;BME280;9226;47.858;9.594;2023-06-14T09:40:45;94792.56;;;32.37;16.41
18201;BME280;9226;47.858;9.594;2023-06-14T09:43:11;94781.31;;;31.41;17.46
18201;BME280;9226;47.858;9.594;2023-06-14T09:45:37;94786.19;;;31.18;16.85
18201;BME280;9226;47.858;9.594;2023-06-14T09:48:06;94796.13;;;31.40;17.68
18201;BME280;9226;47.858;9.594;2023-06-14T09:50:32;94782.25;;;30.83;17.71
18201;BME280;9226;47.858;9.594;2023-06-14T09:53:03;94789.53;;;31.31;17.63
18201;BME280;9226;47.858;9.594;2023-06-14T09:55:31;94786.72;;;31.05;17.87
18201;BME280;9226;47.858;9.594;2023-06-14T09:58:00;94798.91;;;31.55;17.94
18201;BME280;9226;47.858;9.594;2023-06-14T10:00:30;94783.84;;;31.68;17.50
18201;BME280;9226;47.858;9.594;2023-06-14T10:03:01;94791.72;;;31.34;18.60
18201;BME280;9226;47.858;9.594;2023-06-14T10:05:29;94792.28;;;31.46;17.87
18201;BME280;9226;47.858;9.594;2023-06-14T10:08:05;94788.75;;;31.82;17.91
18201;BME280;9226;47.858;9.594;2023-06-14T10:10:33;94787.78;;;30.94;17.61
18201;BME280;9226;47.858;9.594;2023-06-14T10:12:58;94785.97;;;31.25;18.19
18201;BME280;9226;47.858;9.594;2023-06-14T10:17:57;94784.94;;;31.72;18.05
18201;BME280;9226;47.858;9.594;2023-06-14T10:20:38;94785.75;;;31.93;18.19
18201;BME280;9226;47.858;9.594;2023-06-14T10:23:13;94789.84;;;32.27;17.68
18201;BME280;9226;47.858;9.594;2023-06-14T10:25:42;94794.47;;;32.42;17.20
18201;BME280;9226;47.858;9.594;2023-06-14T10:28:17;94794.34;;;32.88;16.80
18201;BME280;9226;47.858;9.594;2023-06-14T10:31:10;94784.28;;;32.53;16.58
18201;BME280;9226;47.858;9.594;2023-06-14T10:33:56;94790.00;;;33.32;16.25
18201;BME280;9226;47.858;9.594;2023-06-14T10:38:56;94786.38;;;33.42;17.00
18201;BME280;9226;47.858;9.594;2023-06-14T10:41:22;94786.25;;;33.57;16.35
18201;BME280;9226;47.858;9.594;2023-06-14T10:43:48;94778.66;;;34.13;17.14
18201;BME280;9226;47.858;9.594;2023-06-14T10:46:18;94775.09;;;34.41;16.76
18201;BME280;9226;47.858;9.594;2023-06-14T10:48:46;94781.03;;;34.54;15.92
18201;BME280;9226;47.858;9.594;2023-06-14T10:51:19;94779.63;;;34.81;16.71
18201;BME280;9226;47.858;9.594;2023-06-14T10:53:47;94777.72;;;34.81;15.96
18201;BME280;9226;47.858;9.594;2023-06-14T10:56:50;94776.91;;;34.27;16.08
18201;BME280;9226;47.858;9.594;2023-06-14T10:59:17;94788.34;;;33.36;15.87
18201;BME280;9226;47.858;9.594;2023-06-14T11:02:04;94777.16;;;33.96;16.06
18201;BME280;9226;47.858;9.594;2023-06-14T11:04:48;94775.88;;;33.49;15.73
18201;BME280;9226;47.858;9.594;2023-06-14T11:10:15;94783.97;;;32.70;16.23
18201;BME280;9226;47.858;9.594;2023-06-14T11:12:47;94772.84;;;32.25;16.26
18201;BME280;9226;47.858;9.594;2023-06-14T11:15:13;94776.69;;;32.14;16.80
18201;BME280;9226;47.858;9.594;2023-06-14T11:17:39;94774.66;;;32.55;17.61
18201;BME280;9226;47.858;9.594;2023-06-14T11:20:12;94775.47;;;32.61;16.74
18201;BME280;9226;47.858;9.594;2023-06-14T11:22:44;94767.91;;;32.22;17.31
18201;BME280;9226;47.858;9.594;2023-06-14T11:25:11;94773.41;;;31.86;17.26
18201;BME280;9226;47.858;9.594;2023-06-14T11:27:37;94772.94;;;30.79;18.20
18201;BME280;9226;47.858;9.594;2023-06-14T11:30:02;94777.59;;;30.84;18.13
18201;BME280;9226;47.858;9.594;2023-06-14T11:32:28;94782.13;;;30.05;18.10
18201;BME280;9226;47.858;9.594;2023-06-14T11:34:56;94788.78;;;30.19;18.23
18201;BME280;9226;47.858;9.594;2023-06-14T11:37:23;94780.63;;;29.92;18.63
18201;BME280;9226;47.858;9.594;2023-06-14T11:39:51;94774.72;;;29.73;20.19
18201;BME280;9226;47.858;9.594;2023-06-14T11:42:17;94774.03;;;29.55;19.38
18201;BME280;9226;47.858;9.594;2023-06-14T11:44:45;94773.13;;;30.09;19.07
18201;BME280;9226;47.858;9.594;2023-06-14T11:47:12;94769.81;;;30.07;19.01
18201;BME280;9226;47.858;9.594;2023-06-14T11:49:38;94767.75;;;29.55;18.67
18201;BME280;9226;47.858;9.594;2023-06-14T11:52:03;94759.22;;;29.46;18.53
18201;BME280;9226;47.858;9.594;2023-06-14T11:54:29;94762.94;;;29.35;18.92
18201;BME280;9226;47.858;9.594;2023-06-14T11:56:54;94768.38;;;29.62;19.53
18201;BME280;9226;47.858;9.594;2023-06-14T11:59:20;94763.94;;;29.56;19.82
18201;BME280;9226;47.858;9.594;2023-06-14T12:01:47;94762.94;;;29.08;19.78
18201;BME280;9226;47.858;9.594;2023-06-14T12:04:13;94773.34;;;29.11;19.69
18201;BME280;9226;47.858;9.594;2023-06-14T12:06:38;94767.88;;;29.11;20.43
18201;BME280;9226;47.858;9.594;2023-06-14T12:09:06;94767.91;;;29.16;21.19
18201;BME280;9226;47.858;9.594;2023-06-14T12:11:41;94759.56;;;29.22;20.65
18201;BME280;9226;47.858;9.594;2023-06-14T12:14:08;94773.63;;;29.14;20.18
18201;BME280;9226;47.858;9.594;2023-06-14T12:16:37;94762.56;;;29.21;19.72
18201;BME280;9226;47.858;9.594;2023-06-14T12:19:14;94753.44;;;29.42;20.56
18201;BME280;9226;47.858;9.594;2023-06-14T12:21:40;94756.44;;;29.14;20.11
18201;BME280;9226;47.858;9.594;2023-06-14T12:24:06;94762.47;;;28.66;20.65
18201;BME280;9226;47.858;9.594;2023-06-14T12:26:32;94750.44;;;28.62;20.52
18201;BME280;9226;47.858;9.594;2023-06-14T12:28:58;94760.63;;;28.28;21.24
18201;BME280;9226;47.858;9.594;2023-06-14T12:31:24;94755.97;;;28.06;20.06
18201;BME280;9226;47.858;9.594;2023-06-14T12:33:49;94748.47;;;27.62;21.15
18201;BME280;9226;47.858;9.594;2023-06-14T12:36:15;94753.03;;;27.11;21.73
18201;BME280;9226;47.858;9.594;2023-06-14T12:38:41;94749.56;;;27.61;21.46
18201;BME280;9226;47.858;9.594;2023-06-14T12:41:07;94755.81;;;27.79;22.74
18201;BME280;9226;47.858;9.594;2023-06-14T12:43:33;94749.13;;;27.87;21.72
18201;BME280;9226;47.858;9.594;2023-06-14T12:45:59;94755.06;;;28.01;22.59
18201;BME280;9226;47.858;9.594;2023-06-14T12:48:25;94756.47;;;28.25;22.29
18201;BME280;9226;47.858;9.594;2023-06-14T12:50:52;94748.94;;;28.10;21.90
18201;BME280;9226;47.858;9.594;2023-06-14T12:53:17;94752.44;;;28.50;22.48
18201;BME280;9226;47.858;9.594;2023-06-14T12:55:42;94760.25;;;28.63;22.82
18201;BME280;9226;47.858;9.594;2023-06-14T12:58:08;94746.53;;;28.80;21.79
18201;BME280;9226;47.858;9.594;2023-06-14T13:00:33;94749.28;;;28.58;22.07
18201;BME280;9226;47.858;9.594;2023-06-14T13:02:59;94758.03;;;28.60;22.00
18201;BME280;9226;47.858;9.594;2023-06-14T13:05:24;94746.06;;;28.61;22.39
18201;BME280;9226;47.858;9.594;2023-06-14T13:07:50;94751.69;;;28.32;22.96
18201;BME280;9226;47.858;9.594;2023-06-14T13:10:16;94759.19;;;28.64;23.06
18201;BME280;9226;47.858;9.594;2023-06-14T13:12:42;94757.94;;;28.55;22.29
18201;BME280;9226;47.858;9.594;2023-06-14T13:15:08;94757.03;;;28.66;22.86
18201;BME280;9226;47.858;9.594;2023-06-14T13:17:34;94753.44;;;28.88;22.56
18201;BME280;9226;47.858;9.594;2023-06-14T13:20:05;94756.06;;;28.78;22.40
18201;BME280;9226;47.858;9.594;2023-06-14T13:22:30;94757.94;;;28.99;22.53
18201;BME280;9226;47.858;9.594;2023-06-14T13:24:55;94751.91;;;28.97;22.83